sensor_id;sensor_type;location;lat;lon;timestamp;temperature;humidity
45311;SHT31;68264;51.540;5.854;2023-11-19T00:09:22;13.5;95.6
45311;SHT31;68264;51.540;5.854;2023-11-19T00:23:21;13.5;95.1
45311;SHT31;68264;51.540;5.854;2023-11-19T00:37:20;13.7;94.1
45311;SHT31;68264;51.540;5.854;2023-11-19T00:51:19;13.7;94.0
45311;SHT31;68264;51.540;5.854;2023-11-19T01:05:18;13.7;93.9
45311;SHT31;68264;51.540;5.854;2023-11-19T01:19:46;13.7;93.6
45311;SHT31;68264;51.540;5.854;2023-11-19T01:34:35;13.8;92.9
45311;SHT31;68264;51.540;5.854;2023-11-19T01:48:54;13.7;92.5
45311;SHT31;68264;51.540;5.854;2023-11-19T02:02:53;13.7;92.0
45311;SHT31;68264;51.540;5.854;2023-11-19T02:17:21;13.5;92.5
45311;SHT31;68264;51.540;5.854;2023-11-19T02:32:09;13.5;91.9
45311;SHT31;68264;51.540;5.854;2023-11-19T02:46:29;13.4;91.2
45311;SHT31;68264;51.540;5.854;2023-11-19T03:00:28;13.3;91.6
45311;SHT31;68264;51.540;5.854;2023-11-19T03:14:56;13.2;91.3
45311;SHT31;68264;51.540;5.854;2023-11-19T03:29:15;13.0;90.5
45311;SHT31;68264;51.540;5.854;2023-11-19T03:43:14;12.8;89.7
45311;SHT31;68264;51.540;5.854;2023-11-19T03:57:13;12.7;88.4
45311;SHT31;68264;51.540;5.854;2023-11-19T04:11:12;12.8;87.6
45311;SHT31;68264;51.540;5.854;2023-11-19T04:25:40;12.6;89.4
45311;SHT31;68264;51.540;5.854;2023-11-19T04:41:33;12.7;88.4
45311;SHT31;68264;51.540;5.854;2023-11-19T04:58:04;12.6;88.9
45311;SHT31;68264;51.540;5.854;2023-11-19T05:13:04;12.6;87.5
45311;SHT31;68264;51.540;5.854;2023-11-19T05:27:03;12.5;87.1
45311;SHT31;68264;51.540;5.854;2023-11-19T05:41:02;12.5;86.6
45311;SHT31;68264;51.540;5.854;2023-11-19T05:55:30;12.4;85.9
45311;SHT31;68264;51.540;5.854;2023-11-19T06:09:49;12.4;86.3
45311;SHT31;68264;51.540;5.854;2023-11-19T06:23:48;12.2;87.0
45311;SHT31;68264;51.540;5.854;2023-11-19T06:37:47;12.1;86.6
45311;SHT31;68264;51.540;5.854;2023-11-19T06:52:47;11.9;86.8
45311;SHT31;68264;51.540;5.854;2023-11-19T07:08:48;11.9;86.2
45311;SHT31;68264;51.540;5.854;2023-11-19T07:23:48;11.8;86.2
45311;SHT31;68264;51.540;5.854;2023-11-19T07:37:47;11.8;85.8
45311;SHT31;68264;51.540;5.854;2023-11-19T07:52:15;11.9;85.7
45311;SHT31;68264;51.540;5.854;2023-11-19T08:06:34;12.0;85.1
45311;SHT31;68264;51.540;5.854;2023-11-19T08:20:33;12.1;85.0
45311;SHT31;68264;51.540;5.854;2023-11-19T08:34:32;12.3;84.5
45311;SHT31;68264;51.540;5.854;2023-11-19T08:48:31;12.4;84.2
45311;SHT31;68264;51.540;5.854;2023-11-19T09:02:30;12.5;84.2
45311;SHT31;68264;51.540;5.854;2023-11-19T09:16:29;12.6;84.2
45311;SHT31;68264;51.540;5.854;2023-11-19T09:30:28;12.8;83.2
45311;SHT31;68264;51.540;5.854;2023-11-19T09:44:27;13.2;82.0
45311;SHT31;68264;51.540;5.854;2023-11-19T09:58:26;13.3;81.1
45311;SHT31;68264;51.540;5.854;2023-11-19T10:13:26;13.4;80.1
45311;SHT31;68264;51.540;5.854;2023-11-19T10:29:27;13.4;79.3
45311;SHT31;68264;51.540;5.854;2023-11-19T10:44:27;13.7;78.4
45311;SHT31;68264;51.540;5.854;2023-11-19T10:58:26;13.8;77.7
45311;SHT31;68264;51.540;5.854;2023-11-19T11:12:54;14.1;77.3
45311;SHT31;68264;51.540;5.854;2023-11-19T11:27:13;13.8;77.5
45311;SHT31;68264;51.540;5.854;2023-11-19T11:41:12;13.6;78.8
45311;SHT31;68264;51.540;5.854;2023-11-19T11:57:49;12.9;82.3
45311;SHT31;68264;51.540;5.854;2023-11-19T12:15:20;13.2;82.6
45311;SHT31;68264;51.540;5.854;2023-11-19T12:30:20;13.7;80.9
45311;SHT31;68264;51.540;5.854;2023-11-19T12:44:19;13.8;80.1
45311;SHT31;68264;51.540;5.854;2023-11-19T12:59:19;14.0;79.4
45311;SHT31;68264;51.540;5.854;2023-11-19T13:14:19;13.4;79.8
45311;SHT31;68264;51.540;5.854;2023-11-19T13:28:18;13.1;81.9
45311;SHT31;68264;51.540;5.854;2023-11-19T13:43:18;12.6;86.7
45311;SHT31;68264;51.540;5.854;2023-11-19T13:58:18;12.8;85.7
45311;SHT31;68264;51.540;5.854;2023-11-19T14:12:17;12.6;85.3
45311;SHT31;68264;51.540;5.854;2023-11-19T14:26:45;12.7;84.7
45311;SHT31;68264;51.540;5.854;2023-11-19T14:41:04;12.5;86.5
45311;SHT31;68264;51.540;5.854;2023-11-19T14:55:03;12.4;86.3
45311;SHT31;68264;51.540;5.854;2023-11-19T15:09:02;12.2;87.1
45311;SHT31;68264;51.540;5.854;2023-11-19T15:24:02;12.2;87.2
45311;SHT31;68264;51.540;5.854;2023-11-19T15:39:02;11.8;91.0
45311;SHT31;68264;51.540;5.854;2023-11-19T15:53:01;11.5;92.1
45311;SHT31;68264;51.540;5.854;2023-11-19T16:07:29;11.6;91.3
45311;SHT31;68264;51.540;5.854;2023-11-19T16:22:50;11.6;91.1
45311;SHT31;68264;51.540;5.854;2023-11-19T16:37:49;11.6;91.4
45311;SHT31;68264;51.540;5.854;2023-11-19T16:51:48;11.5;92.3
45311;SHT31;68264;51.540;5.854;2023-11-19T17:06:49;11.4;93.0
45311;SHT31;68264;51.540;5.854;2023-11-19T17:21:48;11.4;93.2
45311;SHT31;68264;51.540;5.854;2023-11-19T17:35:47;11.2;95.0
45311;SHT31;68264;51.540;5.854;2023-11-19T17:50:47;11.2;94.3
45311;SHT31;68264;51.540;5.854;2023-11-19T18:05:47;11.3;93.6
45311;SHT31;68264;51.540;5.854;2023-11-19T18:20:15;11.3;93.4
45311;SHT31;68264;51.540;5.854;2023-11-19T18:34:35;11.2;93.6
45311;SHT31;68264;51.540;5.854;2023-11-19T18:49:35;11.2;94.4
45311;SHT31;68264;51.540;5.854;2023-11-19T19:05:04;11.1;95.0
45311;SHT31;68264;51.540;5.854;2023-11-19T19:19:52;11.2;94.8
45311;SHT31;68264;51.540;5.854;2023-11-19T19:34:11;11.3;94.7
45311;SHT31;68264;51.540;5.854;2023-11-19T19:48:10;11.3;95.1
45311;SHT31;68264;51.540;5.854;2023-11-19T20:03:10;11.3;94.9
45311;SHT31;68264;51.540;5.854;2023-11-19T20:19:11;11.6;93.3
45311;SHT31;68264;51.540;5.854;2023-11-19T20:34:11;11.7;92.6
45311;SHT31;68264;51.540;5.854;2023-11-19T20:48:10;11.8;92.0
45311;SHT31;68264;51.540;5.854;2023-11-19T21:03:42;11.9;91.3
45311;SHT31;68264;51.540;5.854;2023-11-19T21:19:12;11.9;91.9
45311;SHT31;68264;51.540;5.854;2023-11-19T21:35:16;11.9;91.5
45311;SHT31;68264;51.540;5.854;2023-11-19T21:51:16;11.8;92.4
45311;SHT31;68264;51.540;5.854;2023-11-19T22:05:15;11.7;93.6
45311;SHT31;68264;51.540;5.854;2023-11-19T22:19:14;11.7;92.9
45311;SHT31;68264;51.540;5.854;2023-11-19T22:33:13;11.8;91.9
45311;SHT31;68264;51.540;5.854;2023-11-19T22:47:12;11.8;92.1
45311;SHT31;68264;51.540;5.854;2023-11-19T23:01:12;11.7;92.7
45311;SHT31;68264;51.540;5.854;2023-11-19T23:15:10;11.7;92.7
45311;SHT31;68264;51.540;5.854;2023-11-19T23:29:39;11.8;91.7
45311;SHT31;68264;51.540;5.854;2023-11-19T23:44:27;11.9;91.1
45311;SHT31;68264;51.540;5.854;2023-11-19T23:58:46;11.9;90.7
